sensor_id;sensor_type;location;lat;lon;timestamp;temperature;humidity
3758;DHT22;1894;51.038;13.692;2024-03-17T00:00:07;5.40;99.90
3758;DHT22;1894;51.038;13.692;2024-03-17T00:02:36;5.40;99.90
3758;DHT22;1894;51.038;13.692;2024-03-17T00:05:03;5.40;99.90
3758;DHT22;1894;51.038;13.692;2024-03-17T00:07:29;5.30;99.90
3758;DHT22;1894;51.038;13.692;2024-03-17T00:09:55;5.30;99.90
3758;DHT22;1894;51.038;13.692;2024-03-17T00:12:21;5.30;99.90
3758;DHT22;1894;51.038;13.692;2024-03-17T00:14:47;5.30;99.90
3758;DHT22;1894;51.038;13.692;2024-03-17T00:17:13;5.30;99.90
3758;DHT22;1894;51.038;13.692;2024-03-17T00:19:41;5.20;99.90
3758;DHT22;1894;51.038;13.692;2024-03-17T00:22:07;5.20;99.90
3758;DHT22;1894;51.038;13.692;2024-03-17T00:24:35;5.10;99.90
3758;DHT22;1894;51.038;13.692;2024-03-17T00:27:01;5.10;99.90
3758;DHT22;1894;51.038;13.692;2024-03-17T00:29:27;5.10;99.90
3758;DHT22;1894;51.038;13.692;2024-03-17T00:31:54;5.10;99.90
3758;DHT22;1894;51.038;13.692;2024-03-17T00:34:20;5.10;99.90
3758;DHT22;1894;51.038;13.692;2024-03-17T00:36:46;5.10;99.90
3758;DHT22;1894;51.038;13.692;2024-03-17T00:39:12;5.00;99.90
3758;DHT22;1894;51.038;13.692;2024-03-17T00:41:40;5.10;99.90
3758;DHT22;1894;51.038;13.692;2024-03-17T00:44:06;5.10;99.90
3758;DHT22;1894;51.038;13.692;2024-03-17T00:46:32;5.10;99.90
3758;DHT22;1894;51.038;13.692;2024-03-17T00:48:59;5.00;99.90
3758;DHT22;1894;51.038;13.692;2024-03-17T00:51:28;5.00;99.90
3758;DHT22;1894;51.038;13.692;2024-03-17T00:53:54;5.00;99.90
3758;DHT22;1894;51.038;13.692;2024-03-17T00:56:22;5.00;99.90
3758;DHT22;1894;51.038;13.692;2024-03-17T00:58:48;5.00;99.90
3758;DHT22;1894;51.038;13.692;2024-03-17T01:01:17;5.00;99.90
3758;DHT22;1894;51.038;13.692;2024-03-17T01:03:45;5.00;99.90
3758;DHT22;1894;51.038;13.692;2024-03-17T01:06:12;5.00;99.90
3758;DHT22;1894;51.038;13.692;2024-03-17T01:08:38;5.10;99.90
3758;DHT22;1894;51.038;13.692;2024-03-17T01:11:04;5.10;99.90
3758;DHT22;1894;51.038;13.692;2024-03-17T01:13:34;5.10;99.90
3758;DHT22;1894;51.038;13.692;2024-03-17T01:16:03;5.10;99.90
3758;DHT22;1894;51.038;13.692;2024-03-17T01:18:30;5.10;99.90
3758;DHT22;1894;51.038;13.692;2024-03-17T01:20:56;5.00;99.90
3758;DHT22;1894;51.038;13.692;2024-03-17T01:23:22;5.00;99.90
3758;DHT22;1894;51.038;13.692;2024-03-17T01:25:48;5.00;99.90
3758;DHT22;1894;51.038;13.692;2024-03-17T01:28:14;4.90;99.90
3758;DHT22;1894;51.038;13.692;2024-03-17T01:30:40;4.90;99.90
3758;DHT22;1894;51.038;13.692;2024-03-17T01:33:06;4.90;99.90
3758;DHT22;1894;51.038;13.692;2024-03-17T01:35:33;4.90;99.90
3758;DHT22;1894;51.038;13.692;2024-03-17T01:37:59;4.90;99.90
3758;DHT22;1894;51.038;13.692;2024-03-17T01:40:25;4.80;99.90
3758;DHT22;1894;51.038;13.692;2024-03-17T01:42:51;4.80;99.90
3758;DHT22;1894;51.038;13.692;2024-03-17T01:45:27;4.80;99.90
3758;DHT22;1894;51.038;13.692;2024-03-17T01:47:55;4.80;99.90
3758;DHT22;1894;51.038;13.692;2024-03-17T01:50:25;4.80;99.90
3758;DHT22;1894;51.038;13.692;2024-03-17T01:53:01;4.80;99.90
3758;DHT22;1894;51.038;13.692;2024-03-17T01:55:35;4.80;99.90
3758;DHT22;1894;51.038;13.692;2024-03-17T01:58:04;4.70;99.90
3758;DHT22;1894;51.038;13.692;2024-03-17T02:00:35;4.70;99.90
3758;DHT22;1894;51.038;13.692;2024-03-17T02:03:06;4.70;99.90
3758;DHT22;1894;51.038;13.692;2024-03-17T02:05:35;4.70;99.90
3758;DHT22;1894;51.038;13.692;2024-03-17T02:08:06;4.70;99.90
3758;DHT22;1894;51.038;13.692;2024-03-17T02:10:33;4.70;99.90
3758;DHT22;1894;51.038;13.692;2024-03-17T02:13:03;4.80;99.90
3758;DHT22;1894;51.038;13.692;2024-03-17T02:15:30;4.80;99.90
3758;DHT22;1894;51.038;13.692;2024-03-17T02:17:56;4.80;99.90
3758;DHT22;1894;51.038;13.692;2024-03-17T02:20:22;4.80;99.90
3758;DHT22;1894;51.038;13.692;2024-03-17T02:23:08;4.80;99.90
3758;DHT22;1894;51.038;13.692;2024-03-17T02:25:34;4.70;99.90
3758;DHT22;1894;51.038;13.692;2024-03-17T02:28:01;4.70;99.90
3758;DHT22;1894;51.038;13.692;2024-03-17T02:30:28;4.70;99.90
3758;DHT22;1894;51.038;13.692;2024-03-17T02:32:55;4.70;99.90
3758;DHT22;1894;51.038;13.692;2024-03-17T02:35:22;4.70;99.90
3758;DHT22;1894;51.038;13.692;2024-03-17T02:37:49;4.70;99.90
3758;DHT22;1894;51.038;13.692;2024-03-17T02:40:15;4.70;99.90
3758;DHT22;1894;51.038;13.692;2024-03-17T02:42:42;4.70;99.90
3758;DHT22;1894;51.038;13.692;2024-03-17T02:45:11;4.80;99.90
3758;DHT22;1894;51.038;13.692;2024-03-17T02:47:40;4.80;99.90
3758;DHT22;1894;51.038;13.692;2024-03-17T02:50:08;5.00;99.90
3758;DHT22;1894;51.038;13.692;2024-03-17T02:52:35;5.00;99.90
3758;DHT22;1894;51.038;13.692;2024-03-17T02:55:01;5.00;99.90
3758;DHT22;1894;51.038;13.692;2024-03-17T02:57:27;5.00;99.90
3758;DHT22;1894;51.038;13.692;2024-03-17T02:59:58;5.00;99.90
3758;DHT22;1894;51.038;13.692;2024-03-17T03:02:24;5.00;99.90
3758;DHT22;1894;51.038;13.692;2024-03-17T03:04:50;4.90;99.90
3758;DHT22;1894;51.038;13.692;2024-03-17T03:07:17;4.90;99.90
3758;DHT22;1894;51.038;13.692;2024-03-17T03:09:43;4.90;99.90
3758;DHT22;1894;51.038;13.692;2024-03-17T03:12:09;4.90;99.90
3758;DHT22;1894;51.038;13.692;2024-03-17T03:14:35;4.80;99.90
3758;DHT22;1894;51.038;13.692;2024-03-17T03:17:02;4.90;99.90
3758;DHT22;1894;51.038;13.692;2024-03-17T03:19:29;5.00;99.90
3758;DHT22;1894;51.038;13.692;2024-03-17T03:21:56;5.10;99.90
3758;DHT22;1894;51.038;13.692;2024-03-17T03:24:22;5.20;99.90
3758;DHT22;1894;51.038;13.692;2024-03-17T03:26:48;5.20;99.90
3758;DHT22;1894;51.038;13.692;2024-03-17T03:29:16;5.30;99.90
3758;DHT22;1894;51.038;13.692;2024-03-17T03:31:42;5.30;99.90
3758;DHT22;1894;51.038;13.692;2024-03-17T03:34:08;5.40;99.90
3758;DHT22;1894;51.038;13.692;2024-03-17T03:36:35;5.40;99.90
3758;DHT22;1894;51.038;13.692;2024-03-17T03:39:02;5.40;99.90
3758;DHT22;1894;51.038;13.692;2024-03-17T03:41:31;5.50;99.90
3758;DHT22;1894;51.038;13.692;2024-03-17T03:44:01;5.50;99.90
3758;DHT22;1894;51.038;13.692;2024-03-17T03:46:27;5.50;99.90
3758;DHT22;1894;51.038;13.692;2024-03-17T03:48:53;5.60;99.90
3758;DHT22;1894;51.038;13.692;2024-03-17T03:51:19;5.60;99.90
3758;DHT22;1894;51.038;13.692;2024-03-17T03:53:45;5.70;99.90
3758;DHT22;1894;51.038;13.692;2024-03-17T03:56:11;5.70;99.90
3758;DHT22;1894;51.038;13.692;2024-03-17T03:58:38;5.80;99.90
3758;DHT22;1894;51.038;13.692;2024-03-17T04:01:07;5.70;99.90
3758;DHT22;1894;51.038;13.692;2024-03-17T04:03:34;5.60;99.90
3758;DHT22;1894;51.038;13.692;2024-03-17T04:06:06;5.70;99.90
3758;DHT22;1894;51.038;13.692;2024-03-17T04:08:35;5.60;99.90
3758;DHT22;1894;51.038;13.692;2024-03-17T04:11:03;5.60;99.90
3758;DHT22;1894;51.038;13.692;2024-03-17T04:13:30;5.60;99.90
3758;DHT22;1894;51.038;13.692;2024-03-17T04:15:57;5.70;99.90
3758;DHT22;1894;51.038;13.692;2024-03-17T04:18:25;5.70;99.90
3758;DHT22;1894;51.038;13.692;2024-03-17T04:20:56;5.70;99.90
3758;DHT22;1894;51.038;13.692;2024-03-17T04:23:23;5.70;99.90
3758;DHT22;1894;51.038;13.692;2024-03-17T04:25:53;5.70;99.90
3758;DHT22;1894;51.038;13.692;2024-03-17T04:28:19;5.70;99.90
3758;DHT22;1894;51.038;13.692;2024-03-17T04:30:45;5.70;99.90
3758;DHT22;1894;51.038;13.692;2024-03-17T04:33:12;5.80;99.90
3758;DHT22;1894;51.038;13.692;2024-03-17T04:35:39;5.70;99.90
3758;DHT22;1894;51.038;13.692;2024-03-17T04:38:07;5.60;99.90
3758;DHT22;1894;51.038;13.692;2024-03-17T04:40:33;5.70;99.90
3758;DHT22;1894;51.038;13.692;2024-03-17T04:43:00;5.80;99.90
3758;DHT22;1894;51.038;13.692;2024-03-17T04:45:27;5.80;99.90
3758;DHT22;1894;51.038;13.692;2024-03-17T04:47:53;5.80;99.90
3758;DHT22;1894;51.038;13.692;2024-03-17T04:50:19;5.80;99.90
3758;DHT22;1894;51.038;13.692;2024-03-17T04:52:45;5.80;99.90
3758;DHT22;1894;51.038;13.692;2024-03-17T04:55:11;5.80;99.90
3758;DHT22;1894;51.038;13.692;2024-03-17T04:57:37;5.80;99.90
3758;DHT22;1894;51.038;13.692;2024-03-17T05:00:03;5.80;99.90
3758;DHT22;1894;51.038;13.692;2024-03-17T05:02:33;5.80;99.90
3758;DHT22;1894;51.038;13.692;2024-03-17T05:04:59;5.80;99.90
3758;DHT22;1894;51.038;13.692;2024-03-17T05:07:25;5.80;99.90
3758;DHT22;1894;51.038;13.692;2024-03-17T05:09:51;5.80;99.90
3758;DHT22;1894;51.038;13.692;2024-03-17T05:12:17;5.90;99.90
3758;DHT22;1894;51.038;13.692;2024-03-17T05:14:43;5.90;99.90
3758;DHT22;1894;51.038;13.692;2024-03-17T05:17:09;5.90;99.90
3758;DHT22;1894;51.038;13.692;2024-03-17T05:19:35;5.90;99.90
3758;DHT22;1894;51.038;13.692;2024-03-17T05:22:01;5.80;99.90
3758;DHT22;1894;51.038;13.692;2024-03-17T05:24:27;5.90;99.90
3758;DHT22;1894;51.038;13.692;2024-03-17T05:26:53;5.90;99.90
3758;DHT22;1894;51.038;13.692;2024-03-17T05:29:19;6.00;99.90
3758;DHT22;1894;51.038;13.692;2024-03-17T05:31:45;6.00;99.90
3758;DHT22;1894;51.038;13.692;2024-03-17T05:34:13;6.10;99.90
3758;DHT22;1894;51.038;13.692;2024-03-17T05:36:39;6.20;99.90
3758;DHT22;1894;51.038;13.692;2024-03-17T05:39:04;6.20;99.90
3758;DHT22;1894;51.038;13.692;2024-03-17T05:41:31;6.20;99.90
3758;DHT22;1894;51.038;13.692;2024-03-17T05:43:57;6.20;99.90
3758;DHT22;1894;51.038;13.692;2024-03-17T05:46:29;6.30;99.90
3758;DHT22;1894;51.038;13.692;2024-03-17T05:48:56;6.20;99.90
3758;DHT22;1894;51.038;13.692;2024-03-17T05:51:22;6.30;99.90
3758;DHT22;1894;51.038;13.692;2024-03-17T05:53:51;6.30;99.90
3758;DHT22;1894;51.038;13.692;2024-03-17T05:56:17;6.50;99.90
3758;DHT22;1894;51.038;13.692;2024-03-17T05:58:43;6.40;99.90
3758;DHT22;1894;51.038;13.692;2024-03-17T06:01:09;6.20;99.90
3758;DHT22;1894;51.038;13.692;2024-03-17T06:03:37;6.20;99.90
3758;DHT22;1894;51.038;13.692;2024-03-17T06:06:05;6.20;99.90
3758;DHT22;1894;51.038;13.692;2024-03-17T06:08:36;6.20;99.90
3758;DHT22;1894;51.038;13.692;2024-03-17T06:11:03;6.20;99.90
3758;DHT22;1894;51.038;13.692;2024-03-17T06:13:30;6.10;99.90
3758;DHT22;1894;51.038;13.692;2024-03-17T06:15:56;6.30;99.90
3758;DHT22;1894;51.038;13.692;2024-03-17T06:18:27;6.30;99.90
3758;DHT22;1894;51.038;13.692;2024-03-17T06:20:53;6.30;99.90
3758;DHT22;1894;51.038;13.692;2024-03-17T06:23:20;6.30;99.90
3758;DHT22;1894;51.038;13.692;2024-03-17T06:25:47;6.50;99.90
3758;DHT22;1894;51.038;13.692;2024-03-17T06:28:15;6.50;99.90
3758;DHT22;1894;51.038;13.692;2024-03-17T06:30:54;6.60;99.90
3758;DHT22;1894;51.038;13.692;2024-03-17T06:33:21;6.60;99.90
3758;DHT22;1894;51.038;13.692;2024-03-17T06:35:47;6.70;99.90
3758;DHT22;1894;51.038;13.692;2024-03-17T06:38:14;6.80;99.90
3758;DHT22;1894;51.038;13.692;2024-03-17T06:40:41;6.70;99.90
3758;DHT22;1894;51.038;13.692;2024-03-17T06:43:08;6.90;99.90
3758;DHT22;1894;51.038;13.692;2024-03-17T06:45:34;7.10;99.90
3758;DHT22;1894;51.038;13.692;2024-03-17T06:48:00;7.10;99.90
3758;DHT22;1894;51.038;13.692;2024-03-17T06:50:26;7.20;99.90
3758;DHT22;1894;51.038;13.692;2024-03-17T06:52:52;6.90;99.90
3758;DHT22;1894;51.038;13.692;2024-03-17T06:55:19;6.70;99.90
3758;DHT22;1894;51.038;13.692;2024-03-17T06:57:47;6.60;99.90
3758;DHT22;1894;51.038;13.692;2024-03-17T07:00:14;6.80;99.90
3758;DHT22;1894;51.038;13.692;2024-03-17T07:02:42;6.90;99.90
3758;DHT22;1894;51.038;13.692;2024-03-17T07:05:15;6.90;99.90
3758;DHT22;1894;51.038;13.692;2024-03-17T07:07:43;7.00;99.90
3758;DHT22;1894;51.038;13.692;2024-03-17T07:10:10;7.10;99.90
3758;DHT22;1894;51.038;13.692;2024-03-17T07:12:41;7.30;99.90
3758;DHT22;1894;51.038;13.692;2024-03-17T07:15:08;7.10;99.90
3758;DHT22;1894;51.038;13.692;2024-03-17T07:17:35;7.20;99.90
3758;DHT22;1894;51.038;13.692;2024-03-17T07:20:01;7.30;99.90
3758;DHT22;1894;51.038;13.692;2024-03-17T07:22:29;7.10;99.90
3758;DHT22;1894;51.038;13.692;2024-03-17T07:24:55;6.90;99.90
3758;DHT22;1894;51.038;13.692;2024-03-17T07:27:29;7.00;99.90
3758;DHT22;1894;51.038;13.692;2024-03-17T07:29:56;7.00;99.90
3758;DHT22;1894;51.038;13.692;2024-03-17T07:32:22;7.00;99.90
3758;DHT22;1894;51.038;13.692;2024-03-17T07:34:51;7.30;99.90
3758;DHT22;1894;51.038;13.692;2024-03-17T07:37:17;7.50;99.90
3758;DHT22;1894;51.038;13.692;2024-03-17T07:39:43;7.60;99.90
3758;DHT22;1894;51.038;13.692;2024-03-17T07:42:09;7.50;99.90
3758;DHT22;1894;51.038;13.692;2024-03-17T07:44:35;7.50;99.90
3758;DHT22;1894;51.038;13.692;2024-03-17T07:47:01;7.40;99.90
3758;DHT22;1894;51.038;13.692;2024-03-17T07:49:33;7.40;99.90
3758;DHT22;1894;51.038;13.692;2024-03-17T07:51:59;7.50;99.90
3758;DHT22;1894;51.038;13.692;2024-03-17T07:54:26;7.40;99.90
3758;DHT22;1894;51.038;13.692;2024-03-17T07:56:52;7.20;99.90
3758;DHT22;1894;51.038;13.692;2024-03-17T07:59:18;7.00;99.90
3758;DHT22;1894;51.038;13.692;2024-03-17T08:01:45;7.20;99.90
3758;DHT22;1894;51.038;13.692;2024-03-17T08:04:11;7.40;99.90
3758;DHT22;1894;51.038;13.692;2024-03-17T08:06:41;7.70;99.90
3758;DHT22;1894;51.038;13.692;2024-03-17T08:09:08;7.60;99.90
3758;DHT22;1894;51.038;13.692;2024-03-17T08:11:35;7.60;99.90
3758;DHT22;1894;51.038;13.692;2024-03-17T08:14:02;7.70;99.90
3758;DHT22;1894;51.038;13.692;2024-03-17T08:16:28;7.80;99.90
3758;DHT22;1894;51.038;13.692;2024-03-17T08:18:57;7.80;99.90
3758;DHT22;1894;51.038;13.692;2024-03-17T08:21:23;8.20;99.90
3758;DHT22;1894;51.038;13.692;2024-03-17T08:23:50;8.60;99.90
3758;DHT22;1894;51.038;13.692;2024-03-17T08:26:16;8.80;99.90
3758;DHT22;1894;51.038;13.692;2024-03-17T08:28:43;8.50;99.90
3758;DHT22;1894;51.038;13.692;2024-03-17T08:31:09;8.60;99.90
3758;DHT22;1894;51.038;13.692;2024-03-17T08:33:36;8.80;99.90
3758;DHT22;1894;51.038;13.692;2024-03-17T08:36:05;9.40;99.90
3758;DHT22;1894;51.038;13.692;2024-03-17T08:38:36;9.60;99.90
3758;DHT22;1894;51.038;13.692;2024-03-17T08:41:04;9.50;99.90
3758;DHT22;1894;51.038;13.692;2024-03-17T08:43:35;9.70;99.90
3758;DHT22;1894;51.038;13.692;2024-03-17T08:46:06;9.40;99.90
3758;DHT22;1894;51.038;13.692;2024-03-17T08:48:37;9.40;99.90
3758;DHT22;1894;51.038;13.692;2024-03-17T08:51:06;9.40;99.90
3758;DHT22;1894;51.038;13.692;2024-03-17T08:53:33;9.10;99.90
3758;DHT22;1894;51.038;13.692;2024-03-17T08:56:00;9.40;99.90
3758;DHT22;1894;51.038;13.692;2024-03-17T08:58:26;8.90;99.90
3758;DHT22;1894;51.038;13.692;2024-03-17T09:00:52;9.40;99.90
3758;DHT22;1894;51.038;13.692;2024-03-17T09:03:19;9.30;99.90
3758;DHT22;1894;51.038;13.692;2024-03-17T09:05:47;9.10;99.90
3758;DHT22;1894;51.038;13.692;2024-03-17T09:08:19;9.00;99.90
3758;DHT22;1894;51.038;13.692;2024-03-17T09:10:49;9.30;99.90
3758;DHT22;1894;51.038;13.692;2024-03-17T09:13:21;9.30;99.90
3758;DHT22;1894;51.038;13.692;2024-03-17T09:15:55;8.80;99.90
3758;DHT22;1894;51.038;13.692;2024-03-17T09:18:23;9.20;99.90
3758;DHT22;1894;51.038;13.692;2024-03-17T09:21:04;8.90;99.90
3758;DHT22;1894;51.038;13.692;2024-03-17T09:23:32;9.00;99.90
3758;DHT22;1894;51.038;13.692;2024-03-17T09:26:05;9.30;99.90
3758;DHT22;1894;51.038;13.692;2024-03-17T09:28:36;9.30;99.90
3758;DHT22;1894;51.038;13.692;2024-03-17T09:31:03;9.50;99.90
3758;DHT22;1894;51.038;13.692;2024-03-17T09:33:33;9.40;99.90
3758;DHT22;1894;51.038;13.692;2024-03-17T09:36:03;9.50;99.90
3758;DHT22;1894;51.038;13.692;2024-03-17T09:38:34;9.40;99.90
3758;DHT22;1894;51.038;13.692;2024-03-17T09:41:00;9.40;99.90
3758;DHT22;1894;51.038;13.692;2024-03-17T09:43:28;9.70;99.90
3758;DHT22;1894;51.038;13.692;2024-03-17T09:45:55;9.40;99.90
3758;DHT22;1894;51.038;13.692;2024-03-17T09:48:28;9.40;99.90
3758;DHT22;1894;51.038;13.692;2024-03-17T09:50:56;9.40;99.90
3758;DHT22;1894;51.038;13.692;2024-03-17T09:53:26;9.30;99.90
3758;DHT22;1894;51.038;13.692;2024-03-17T09:56:13;9.20;99.90
3758;DHT22;1894;51.038;13.692;2024-03-17T09:58:45;9.50;99.90
3758;DHT22;1894;51.038;13.692;2024-03-17T10:01:12;9.40;99.90
3758;DHT22;1894;51.038;13.692;2024-03-17T10:06:14;9.50;99.90
3758;DHT22;1894;51.038;13.692;2024-03-17T10:08:45;9.30;99.90
3758;DHT22;1894;51.038;13.692;2024-03-17T10:11:14;9.60;99.90
3758;DHT22;1894;51.038;13.692;2024-03-17T10:13:45;9.50;99.90
3758;DHT22;1894;51.038;13.692;2024-03-17T10:16:32;9.70;99.90
3758;DHT22;1894;51.038;13.692;2024-03-17T10:21:40;10.60;99.90
3758;DHT22;1894;51.038;13.692;2024-03-17T10:24:12;10.20;99.90
3758;DHT22;1894;51.038;13.692;2024-03-17T10:26:44;10.40;99.90
3758;DHT22;1894;51.038;13.692;2024-03-17T10:29:24;10.20;99.90
3758;DHT22;1894;51.038;13.692;2024-03-17T10:32:02;10.20;99.90
3758;DHT22;1894;51.038;13.692;2024-03-17T10:34:30;10.30;99.90
3758;DHT22;1894;51.038;13.692;2024-03-17T10:37:09;9.90;99.90
3758;DHT22;1894;51.038;13.692;2024-03-17T10:39:42;9.90;99.90
3758;DHT22;1894;51.038;13.692;2024-03-17T10:42:11;10.20;99.90
3758;DHT22;1894;51.038;13.692;2024-03-17T10:44:39;9.80;99.90
3758;DHT22;1894;51.038;13.692;2024-03-17T10:47:11;9.90;99.90
3758;DHT22;1894;51.038;13.692;2024-03-17T10:49:47;10.20;99.90
3758;DHT22;1894;51.038;13.692;2024-03-17T10:52:17;10.50;99.90
3758;DHT22;1894;51.038;13.692;2024-03-17T10:54:51;10.40;99.90
3758;DHT22;1894;51.038;13.692;2024-03-17T11:00:02;10.30;99.90
3758;DHT22;1894;51.038;13.692;2024-03-17T11:02:31;10.40;99.90
3758;DHT22;1894;51.038;13.692;2024-03-17T11:05:00;11.00;99.90
3758;DHT22;1894;51.038;13.692;2024-03-17T11:07:46;11.10;99.80
3758;DHT22;1894;51.038;13.692;2024-03-17T11:10:28;10.10;99.90
3758;DHT22;1894;51.038;13.692;2024-03-17T11:12:57;10.10;99.90
3758;DHT22;1894;51.038;13.692;2024-03-17T11:20:36;10.70;99.30
3758;DHT22;1894;51.038;13.692;2024-03-17T11:23:06;10.30;99.90
3758;DHT22;1894;51.038;13.692;2024-03-17T11:28:03;10.90;99.30
3758;DHT22;1894;51.038;13.692;2024-03-17T11:39:08;11.20;99.90
3758;DHT22;1894;51.038;13.692;2024-03-17T11:41:48;13.00;97.40
3758;DHT22;1894;51.038;13.692;2024-03-17T11:47:02;14.20;94.00
3758;DHT22;1894;51.038;13.692;2024-03-17T11:49:41;16.50;90.90
3758;DHT22;1894;51.038;13.692;2024-03-17T11:52:14;17.80;82.80
3758;DHT22;1894;51.038;13.692;2024-03-17T11:54:44;19.10;79.30
3758;DHT22;1894;51.038;13.692;2024-03-17T11:57:20;20.60;69.60
3758;DHT22;1894;51.038;13.692;2024-03-17T11:59:48;19.90;65.50
3758;DHT22;1894;51.038;13.692;2024-03-17T12:02:26;18.00;65.90
3758;DHT22;1894;51.038;13.692;2024-03-17T12:04:56;17.00;68.80
3758;DHT22;1894;51.038;13.692;2024-03-17T12:07:23;17.70;68.60
3758;DHT22;1894;51.038;13.692;2024-03-17T12:09:51;17.30;68.00
3758;DHT22;1894;51.038;13.692;2024-03-17T12:14:50;18.30;67.20
3758;DHT22;1894;51.038;13.692;2024-03-17T12:17:24;19.40;63.80
3758;DHT22;1894;51.038;13.692;2024-03-17T12:19:51;18.30;63.80
3758;DHT22;1894;51.038;13.692;2024-03-17T12:22:19;18.80;64.40
3758;DHT22;1894;51.038;13.692;2024-03-17T12:24:53;20.80;62.30
3758;DHT22;1894;51.038;13.692;2024-03-17T12:27:23;19.30;61.70
3758;DHT22;1894;51.038;13.692;2024-03-17T12:29:54;18.40;61.10
3758;DHT22;1894;51.038;13.692;2024-03-17T12:32:22;16.60;60.90
3758;DHT22;1894;51.038;13.692;2024-03-17T12:37:24;15.90;60.80
3758;DHT22;1894;51.038;13.692;2024-03-17T12:40:01;17.00;61.60
3758;DHT22;1894;51.038;13.692;2024-03-17T12:42:28;17.50;59.10
3758;DHT22;1894;51.038;13.692;2024-03-17T12:44:56;18.80;59.40
3758;DHT22;1894;51.038;13.692;2024-03-17T12:47:23;19.90;57.90
3758;DHT22;1894;51.038;13.692;2024-03-17T12:49:56;19.80;57.70
3758;DHT22;1894;51.038;13.692;2024-03-17T12:52:30;17.60;57.70
3758;DHT22;1894;51.038;13.692;2024-03-17T12:55:00;16.10;59.20
3758;DHT22;1894;51.038;13.692;2024-03-17T12:57:50;15.30;61.50
3758;DHT22;1894;51.038;13.692;2024-03-17T13:00:36;15.60;60.00
3758;DHT22;1894;51.038;13.692;2024-03-17T13:03:05;16.40;57.60
3758;DHT22;1894;51.038;13.692;2024-03-17T13:05:35;17.50;57.90
3758;DHT22;1894;51.038;13.692;2024-03-17T13:08:02;19.00;57.30
3758;DHT22;1894;51.038;13.692;2024-03-17T13:10:30;19.50;56.40
3758;DHT22;1894;51.038;13.692;2024-03-17T13:13:09;18.50;55.20
3758;DHT22;1894;51.038;13.692;2024-03-17T13:15:36;19.60;57.30
3758;DHT22;1894;51.038;13.692;2024-03-17T13:18:02;19.20;55.30
3758;DHT22;1894;51.038;13.692;2024-03-17T13:20:32;19.10;57.10
3758;DHT22;1894;51.038;13.692;2024-03-17T13:22:58;19.80;57.90
3758;DHT22;1894;51.038;13.692;2024-03-17T13:25:29;21.40;57.30
3758;DHT22;1894;51.038;13.692;2024-03-17T13:28:00;23.10;54.60
3758;DHT22;1894;51.038;13.692;2024-03-17T13:30:28;23.60;51.50
3758;DHT22;1894;51.038;13.692;2024-03-17T13:32:55;23.40;48.80
3758;DHT22;1894;51.038;13.692;2024-03-17T13:35:28;23.60;50.20
3758;DHT22;1894;51.038;13.692;2024-03-17T13:37:57;23.20;50.20
3758;DHT22;1894;51.038;13.692;2024-03-17T13:40:28;20.70;51.80
3758;DHT22;1894;51.038;13.692;2024-03-17T13:42:56;20.30;52.80
3758;DHT22;1894;51.038;13.692;2024-03-17T13:45:24;20.00;52.10
3758;DHT22;1894;51.038;13.692;2024-03-17T13:48:02;18.80;53.80
3758;DHT22;1894;51.038;13.692;2024-03-17T13:50:32;20.00;53.60
3758;DHT22;1894;51.038;13.692;2024-03-17T13:52:59;21.40;52.20
3758;DHT22;1894;51.038;13.692;2024-03-17T13:55:29;22.70;51.10
3758;DHT22;1894;51.038;13.692;2024-03-17T13:57:56;22.10;49.10
3758;DHT22;1894;51.038;13.692;2024-03-17T14:00:28;21.30;49.90
3758;DHT22;1894;51.038;13.692;2024-03-17T14:02:56;22.30;49.00
3758;DHT22;1894;51.038;13.692;2024-03-17T14:05:23;21.00;48.80
3758;DHT22;1894;51.038;13.692;2024-03-17T14:07:51;20.30;49.90
3758;DHT22;1894;51.038;13.692;2024-03-17T14:10:20;20.00;49.80
3758;DHT22;1894;51.038;13.692;2024-03-17T14:12:53;20.10;48.90
3758;DHT22;1894;51.038;13.692;2024-03-17T14:15:20;19.60;49.70
3758;DHT22;1894;51.038;13.692;2024-03-17T14:17:47;20.30;49.60
3758;DHT22;1894;51.038;13.692;2024-03-17T14:20:17;21.50;49.80
3758;DHT22;1894;51.038;13.692;2024-03-17T14:22:45;21.20;49.00
3758;DHT22;1894;51.038;13.692;2024-03-17T14:25:19;22.50;49.00
3758;DHT22;1894;51.038;13.692;2024-03-17T14:27:46;22.90;48.50
3758;DHT22;1894;51.038;13.692;2024-03-17T14:30:17;23.50;47.60
3758;DHT22;1894;51.038;13.692;2024-03-17T14:32:44;23.30;47.40
3758;DHT22;1894;51.038;13.692;2024-03-17T14:35:16;23.90;47.20
3758;DHT22;1894;51.038;13.692;2024-03-17T14:37:44;24.70;47.00
3758;DHT22;1894;51.038;13.692;2024-03-17T14:40:16;24.60;46.00
3758;DHT22;1894;51.038;13.692;2024-03-17T14:42:54;23.20;46.10
3758;DHT22;1894;51.038;13.692;2024-03-17T14:45:23;23.70;46.20
3758;DHT22;1894;51.038;13.692;2024-03-17T14:47:50;24.40;44.70
3758;DHT22;1894;51.038;13.692;2024-03-17T14:50:17;24.60;44.60
3758;DHT22;1894;51.038;13.692;2024-03-17T14:52:44;24.70;45.00
3758;DHT22;1894;51.038;13.692;2024-03-17T14:55:11;23.80;43.80
3758;DHT22;1894;51.038;13.692;2024-03-17T14:57:38;22.80;45.60
3758;DHT22;1894;51.038;13.692;2024-03-17T15:00:10;24.30;44.80
3758;DHT22;1894;51.038;13.692;2024-03-17T15:02:45;23.60;44.40
3758;DHT22;1894;51.038;13.692;2024-03-17T15:05:13;23.80;44.60
3758;DHT22;1894;51.038;13.692;2024-03-17T15:07:47;23.20;44.00
3758;DHT22;1894;51.038;13.692;2024-03-17T15:10:14;23.70;44.90
3758;DHT22;1894;51.038;13.692;2024-03-17T15:12:41;24.50;44.00
3758;DHT22;1894;51.038;13.692;2024-03-17T15:15:08;24.60;43.70
3758;DHT22;1894;51.038;13.692;2024-03-17T15:17:36;25.00;43.40
3758;DHT22;1894;51.038;13.692;2024-03-17T15:20:02;24.50;43.60
3758;DHT22;1894;51.038;13.692;2024-03-17T15:22:46;23.90;43.30
3758;DHT22;1894;51.038;13.692;2024-03-17T15:25:16;23.90;44.10
3758;DHT22;1894;51.038;13.692;2024-03-17T15:27:42;23.00;42.60
3758;DHT22;1894;51.038;13.692;2024-03-17T15:30:15;22.70;44.00
3758;DHT22;1894;51.038;13.692;2024-03-17T15:32:48;21.50;44.30
3758;DHT22;1894;51.038;13.692;2024-03-17T15:35:15;21.80;45.10
3758;DHT22;1894;51.038;13.692;2024-03-17T15:37:42;20.80;45.60
3758;DHT22;1894;51.038;13.692;2024-03-17T15:40:09;19.80;45.60
3758;DHT22;1894;51.038;13.692;2024-03-17T15:42:46;19.30;47.50
3758;DHT22;1894;51.038;13.692;2024-03-17T15:45:15;19.20;47.70
3758;DHT22;1894;51.038;13.692;2024-03-17T15:47:42;20.00;47.30
3758;DHT22;1894;51.038;13.692;2024-03-17T15:50:08;20.60;46.60
3758;DHT22;1894;51.038;13.692;2024-03-17T15:52:34;21.10;46.60
3758;DHT22;1894;51.038;13.692;2024-03-17T15:55:02;20.60;46.10
3758;DHT22;1894;51.038;13.692;2024-03-17T15:57:32;20.60;45.60
3758;DHT22;1894;51.038;13.692;2024-03-17T15:59:58;19.80;45.60
3758;DHT22;1894;51.038;13.692;2024-03-17T16:02:28;17.80;47.00
3758;DHT22;1894;51.038;13.692;2024-03-17T16:04:54;16.60;49.20
3758;DHT22;1894;51.038;13.692;2024-03-17T16:07:21;15.90;49.40
3758;DHT22;1894;51.038;13.692;2024-03-17T16:09:50;14.90;50.90
3758;DHT22;1894;51.038;13.692;2024-03-17T16:12:19;14.10;52.60
3758;DHT22;1894;51.038;13.692;2024-03-17T16:14:46;13.60;53.50
3758;DHT22;1894;51.038;13.692;2024-03-17T16:17:15;13.00;54.20
3758;DHT22;1894;51.038;13.692;2024-03-17T16:19:42;12.60;55.40
3758;DHT22;1894;51.038;13.692;2024-03-17T16:22:09;12.30;56.30
3758;DHT22;1894;51.038;13.692;2024-03-17T16:24:37;12.20;56.90
3758;DHT22;1894;51.038;13.692;2024-03-17T16:27:06;12.10;57.20
3758;DHT22;1894;51.038;13.692;2024-03-17T16:29:33;11.90;57.60
3758;DHT22;1894;51.038;13.692;2024-03-17T16:31:59;11.80;58.10
3758;DHT22;1894;51.038;13.692;2024-03-17T16:34:26;11.70;58.80
3758;DHT22;1894;51.038;13.692;2024-03-17T16:36:57;11.50;59.70